Time;durP1;ratioP1;P1;durP2;ratioP2;P2;SDS_P1;SDS_P2;PMS_P1;PMS_P2;Temp;Humidity;BMP_temperature;BMP_pressure;BME280_temperature;BME280_humidity;BME280_pressure;Samples;Min_cycle;Max_cycle;Signal;HPM_P1;HPM_P2
2021/03/12 00:00:34;;;;;;;7.07;4.07;;;6.10;1.00;;;;;;4855877;28;20186;-78
2021/03/12 00:03:07;;;;;;;4.07;3.73;;;6.00;1.00;;;;;;4857813;28;20208;-83
2021/03/12 00:05:29;;;;;;;3.60;3.30;;;5.90;1.00;;;;;;4848405;28;20245;-86
2021/03/12 00:07:53;;;;;;;3.87;3.57;;;6.50;1.00;;;;;;4852311;28;20186;-77
2021/03/12 00:10:17;;;;;;;3.90;3.60;;;5.70;99.90;;;;;;4845775;28;20218;-87
2021/03/12 00:12:40;;;;;;;3.93;3.63;;;5.70;99.90;;;;;;4853328;28;20213;-85
2021/03/12 00:15:03;;;;;;;3.97;3.67;;;5.60;99.90;;;;;;4859932;28;20190;-76
2021/03/12 00:17:26;;;;;;;3.50;3.20;;;5.60;99.90;;;;;;4859074;28;20263;-86
2021/03/12 00:19:48;;;;;;;3.70;3.37;;;6.10;1.00;;;;;;4856290;28;20280;-82
2021/03/12 00:22:10;;;;;;;3.30;3.00;;;5.60;1.00;;;;;;4840996;28;20194;-84
2021/03/12 00:24:33;;;;;;;3.47;3.17;;;5.70;99.90;;;;;;4841992;28;20601;-74
2021/03/12 00:26:59;;;;;;;3.13;2.90;;;5.60;1.00;;;;;;4839472;28;20739;-88
2021/03/12 00:29:21;;;;;;;3.90;3.50;;;5.50;99.90;;;;;;4845280;28;20277;-80
2021/03/12 00:31:43;;;;;;;3.80;3.50;;;5.50;52.80;;;;;;4856789;28;20202;-79
2021/03/12 00:34:06;;;;;;;3.90;3.60;;;5.40;1.00;;;;;;4849006;28;20248;-83
2021/03/12 00:36:28;;;;;;;4.03;3.63;;;5.30;1.00;;;;;;4841102;28;20746;-84
2021/03/12 00:38:51;;;;;;;4.20;3.90;;;5.30;1.00;;;;;;4849157;28;20597;-81
2021/03/12 00:41:13;;;;;;;4.10;3.80;;;5.10;1.00;;;;;;4841636;28;20190;-81
2021/03/12 00:43:43;;;;;;;5.03;4.53;;;5.20;1.00;;;;;;4845299;28;20260;-83
2021/03/12 00:46:18;;;;;;;4.90;4.50;;;5.10;1.00;;;;;;4849145;28;20714;-78
2021/03/12 00:48:40;;;;;;;4.77;4.27;;;5.00;1.00;;;;;;4822677;28;20684;-85
2021/03/12 00:51:04;;;;;;;4.33;3.93;;;5.10;1.00;;;;;;4851439;28;20263;-77
2021/03/12 00:53:34;;;;;;;4.97;4.57;;;4.90;50.70;;;;;;4856009;28;20206;-80
2021/03/12 00:56:00;;;;;;;4.40;4.00;;;4.90;88.60;;;;;;4836681;28;20210;-89
2021/03/12 00:58:23;;;;;;;4.73;4.33;;;4.80;98.60;;;;;;4853536;28;20728;-80
2021/03/12 01:00:52;;;;;;;4.33;3.93;;;4.70;99.90;;;;;;4857106;28;20221;-83
2021/03/12 01:03:15;;;;;;;4.57;4.17;;;4.70;99.90;;;;;;4857713;28;20202;-84
2021/03/12 01:05:43;;;;;;;5.40;4.67;;;4.60;99.90;;;;;;4825914;28;20242;-83
2021/03/12 01:08:11;;;;;;;4.43;4.03;;;4.50;99.90;;;;;;4854653;28;20646;-78
2021/03/12 01:10:34;;;;;;;4.57;4.13;;;4.50;99.90;;;;;;4856368;28;20280;-82
2021/03/12 01:12:56;;;;;;;5.87;5.27;;;4.60;99.90;;;;;;4852372;28;20228;-83
2021/03/12 01:15:21;;;;;;;4.90;4.50;;;4.60;99.90;;;;;;4874976;28;20201;-77
2021/03/12 01:17:47;;;;;;;5.53;5.03;;;4.60;97.60;;;;;;4857778;28;20198;-84
2021/03/12 01:20:12;;;;;;;5.80;5.30;;;4.60;89.60;;;;;;4858847;28;20194;-77
2021/03/12 01:22:34;;;;;;;5.40;4.90;;;4.60;79.70;;;;;;4855314;28;20198;-77
2021/03/12 01:25:00;;;;;;;6.00;5.50;;;4.70;74.50;;;;;;4915818;22;20229;-76
2021/03/12 01:27:38;;;;;;;6.63;6.03;;;4.60;64.80;;;;;;4845309;28;20287;-77
2021/03/12 01:30:00;;;;;;;6.13;5.53;;;4.60;57.50;;;;;;4874044;28;20237;-79
2021/03/12 01:32:28;;;;;;;6.33;5.73;;;4.60;53.30;;;;;;4842622;28;20713;-79
2021/03/12 01:34:52;;;;;;;6.10;5.50;;;4.60;45.50;;;;;;4850004;28;20202;-79
2021/03/12 01:37:14;;;;;;;6.83;6.17;;;4.60;39.60;;;;;;4873111;28;20193;-83
2021/03/12 01:39:46;;;;;;;5.67;5.13;;;4.50;39.80;;;;;;4873797;28;20728;-81
2021/03/12 01:42:09;;;;;;;5.77;5.27;;;4.50;32.90;;;;;;4873535;28;20255;-82
2021/03/12 01:44:35;;;;;;;5.80;5.30;;;4.50;36.90;;;;;;4843588;28;20202;-79
2021/03/12 01:46:57;;;;;;;5.20;4.70;;;4.40;37.20;;;;;;4851214;28;20613;-78
2021/03/12 01:49:22;;;;;;;4.80;4.40;;;4.40;43.20;;;;;;4857380;28;20222;-78
2021/03/12 01:51:44;;;;;;;6.73;6.03;;;4.40;44.30;;;;;;4874351;28;20193;-82
2021/03/12 01:54:07;;;;;;;6.77;6.17;;;4.50;52.30;;;;;;4855864;28;20284;-82
2021/03/12 01:56:29;;;;;;;7.47;6.73;;;4.50;47.20;;;;;;4857798;28;20254;-80
2021/03/12 01:59:01;;;;;;;5.60;5.10;;;4.50;43.80;;;;;;4854867;28;20407;-86
2021/03/12 02:01:39;;;;;;;7.13;6.43;;;4.50;40.90;;;;;;4864546;28;20232;-81
2021/03/12 02:04:08;;;;;;;7.70;7.00;;;4.50;41.60;;;;;;4855639;28;20178;-80
2021/03/12 02:06:45;;;;;;;8.00;7.20;;;4.50;43.70;;;;;;4872575;28;20258;-82
2021/03/12 02:09:07;;;;;;;7.77;7.07;;;4.50;54.40;;;;;;4857181;28;20605;-84
2021/03/12 02:11:35;;;;;;;7.37;6.70;;;4.50;58.60;;;;;;4857232;28;20213;-74
2021/03/12 02:14:09;;;;;;;7.47;6.77;;;4.60;57.60;;;;;;4856778;28;20198;-79
2021/03/12 02:16:37;;;;;;;7.83;7.03;;;4.50;61.20;;;;;;4854718;28;20202;-82
2021/03/12 02:19:09;;;;;;;7.53;6.83;;;4.40;75.00;;;;;;4856491;28;20304;-76
2021/03/12 02:21:36;;;;;;;8.17;7.37;;;4.50;87.10;;;;;;4840049;28;20195;-87
2021/03/12 02:24:16;;;;;;;8.07;7.37;;;4.50;88.90;;;;;;4838309;28;20257;-79
2021/03/12 02:27:00;;;;;;;8.33;7.53;;;4.60;90.30;;;;;;4852704;28;20209;-79
2021/03/12 02:29:25;;;;;;;7.13;6.43;;;4.60;92.80;;;;;;4849153;28;20221;-79
2021/03/12 02:31:52;;;;;;;6.03;5.43;;;4.60;94.30;;;;;;4854027;28;20210;-76
2021/03/12 02:34:17;;;;;;;5.67;5.13;;;4.60;95.90;;;;;;4826451;28;20252;-79
2021/03/12 02:36:43;;;;;;;5.93;5.40;;;4.60;96.00;;;;;;4821575;28;20199;-81
2021/03/12 02:39:10;;;;;;;5.50;4.90;;;4.60;95.00;;;;;;4841019;28;20236;-82
2021/03/12 02:41:34;;;;;;;6.30;5.00;;;4.60;94.20;;;;;;4849401;28;20375;-76
2021/03/12 02:44:01;;;;;;;5.53;5.03;;;4.50;93.00;;;;;;4845272;28;20284;-82
2021/03/12 02:46:37;;;;;;;5.30;4.80;;;4.50;95.40;;;;;;4843522;28;20253;-80
2021/03/12 02:49:03;;;;;;;5.50;4.97;;;4.50;97.20;;;;;;4846250;28;20839;-75
2021/03/12 02:51:27;;;;;;;6.67;6.07;;;4.40;98.80;;;;;;4836840;28;20654;-80
2021/03/12 02:53:51;;;;;;;7.80;7.00;;;4.50;99.90;;;;;;4834115;28;20191;-77
2021/03/12 02:56:23;;;;;;;6.73;6.10;;;4.50;99.90;;;;;;4835906;28;20317;-80
2021/03/12 02:58:49;;;;;;;6.70;6.10;;;4.40;99.90;;;;;;4851889;28;20300;-83
2021/03/12 03:01:23;;;;;;;7.17;6.57;;;4.40;99.90;;;;;;4844255;28;20218;-79
2021/03/12 03:04:03;;;;;;;7.17;6.47;;;4.40;99.90;;;;;;4838848;28;20227;-75
2021/03/12 03:07:01;;;;;;;8.57;7.77;;;4.40;99.90;;;;;;4834418;28;20244;-84
2021/03/12 03:09:26;;;;;;;8.50;7.70;;;4.40;99.90;;;;;;4826151;28;20238;-85
2021/03/12 03:11:49;;;;;;;7.50;6.80;;;4.50;99.90;;;;;;4839513;28;20202;-80
2021/03/12 03:14:13;;;;;;;7.20;6.57;;;4.40;99.90;;;;;;4853542;28;20186;-79
2021/03/12 03:16:38;;;;;;;7.33;6.47;;;4.50;99.10;;;;;;4852480;28;20295;-80
2021/03/12 03:19:01;;;;;;;7.43;6.73;;;4.60;96.40;;;;;;4838562;28;20199;-85
2021/03/12 03:21:25;;;;;;;7.60;6.90;;;4.60;94.50;;;;;;4850491;28;20201;-81
2021/03/12 03:23:48;;;;;;;6.17;5.57;;;4.60;91.90;;;;;;4855586;28;20229;-77
2021/03/12 03:26:12;;;;;;;5.77;5.27;;;4.70;88.20;;;;;;4853460;28;20220;-80
2021/03/12 03:28:36;;;;;;;6.30;5.70;;;4.70;81.70;;;;;;4849787;28;20206;-80
2021/03/12 03:31:01;;;;;;;6.97;6.33;;;4.70;71.90;;;;;;4835959;28;20226;-82
2021/03/12 03:33:24;;;;;;;5.77;5.20;;;4.80;61.80;;;;;;4838021;28;20206;-79
2021/03/12 03:35:47;;;;;;;4.77;4.33;;;4.70;55.70;;;;;;4820403;28;20199;-81
2021/03/12 03:38:09;;;;;;;4.73;4.33;;;4.70;53.60;;;;;;4826603;28;20187;-83
2021/03/12 03:40:32;;;;;;;4.73;3.83;;;4.70;57.20;;;;;;4831312;28;20214;-84
2021/03/12 03:42:57;;;;;;;4.40;4.00;;;4.70;60.40;;;;;;4854965;28;20228;-82
2021/03/12 03:45:20;;;;;;;4.97;4.57;;;4.80;64.90;;;;;;4838454;28;20187;-83
2021/03/12 03:47:54;;;;;;;3.80;3.50;;;4.80;66.10;;;;;;4836770;28;20272;-84
2021/03/12 03:50:18;;;;;;;4.23;3.83;;;4.80;61.50;;;;;;4836460;28;20265;-84
2021/03/12 03:52:41;;;;;;;4.70;3.57;;;4.80;57.50;;;;;;4819844;28;20202;-86
2021/03/12 03:55:08;;;;;;;3.57;3.27;;;4.90;56.20;;;;;;4838133;28;20553;-82
2021/03/12 03:57:31;;;;;;;3.60;3.30;;;5.00;45.90;;;;;;4820237;28;20187;-83
2021/03/12 03:59:54;;;;;;;3.97;3.33;;;5.10;39.30;;;;;;4845481;28;21102;-82
2021/03/12 04:02:19;;;;;;;3.57;3.27;;;5.10;33.90;;;;;;4838972;28;20263;-74
2021/03/12 04:04:44;;;;;;;3.77;3.17;;;5.20;25.00;;;;;;4853726;28;20641;-85
2021/03/12 04:07:08;;;;;;;3.60;3.30;;;5.20;20.30;;;;;;4854798;28;20213;-86
2021/03/12 04:09:33;;;;;;;3.43;3.13;;;5.30;11.20;;;;;;4845413;28;20464;-87
2021/03/12 04:11:56;;;;;;;3.97;3.57;;;5.30;6.40;;;;;;4852863;28;20259;-82
2021/03/12 04:14:22;;;;;;;3.40;3.10;;;5.30;1.00;;;;;;4836937;28;20236;-80
2021/03/12 04:16:45;;;;;;;4.30;3.63;;;5.30;1.00;;;;;;4835831;28;20207;-84
2021/03/12 04:19:09;;;;;;;4.10;3.70;;;5.40;1.00;;;;;;4837467;28;20238;-86
2021/03/12 04:21:33;;;;;;;4.50;4.10;;;5.40;1.00;;;;;;4837109;28;20211;-84
2021/03/12 04:24:01;;;;;;;3.73;3.43;;;5.40;1.00;;;;;;4856257;28;20271;-81
2021/03/12 04:26:24;;;;;;;4.50;4.10;;;5.50;1.00;;;;;;4835956;28;20224;-77
2021/03/12 04:28:47;;;;;;;4.33;3.30;;;5.50;1.00;;;;;;4846549;28;20199;-85
2021/03/12 04:31:10;;;;;;;3.87;3.57;;;5.50;1.00;;;;;;4827401;28;20635;-85
2021/03/12 04:33:34;;;;;;;3.70;3.40;;;5.50;1.00;;;;;;4837188;28;20198;-83
2021/03/12 04:35:57;;;;;;;3.97;3.57;;;5.50;1.00;;;;;;4837126;28;20411;-79
2021/03/12 04:38:21;;;;;;;3.63;3.33;;;5.50;1.00;;;;;;4845331;28;20256;-88
2021/03/12 04:40:44;;;;;;;4.03;3.63;;;5.50;1.00;;;;;;4834526;28;20202;-85
2021/03/12 04:43:08;;;;;;;4.67;4.13;;;5.60;1.00;;;;;;4853864;28;20615;-81
2021/03/12 04:45:30;;;;;;;5.17;4.73;;;5.60;1.00;;;;;;4852505;28;20228;-83
2021/03/12 04:47:57;;;;;;;5.13;4.73;;;5.50;1.00;;;;;;4836918;28;20190;-83
2021/03/12 04:50:21;;;;;;;5.23;4.73;;;5.50;1.00;;;;;;4818241;28;20211;-83
2021/03/12 04:52:45;;;;;;;4.97;4.57;;;5.50;1.00;;;;;;4820603;28;20661;-90
2021/03/12 04:55:13;;;;;;;5.43;4.90;;;5.50;1.00;;;;;;4817751;28;20203;-87
2021/03/12 04:57:39;;;;;;;5.50;5.00;;;5.40;1.00;;;;;;4828150;28;20194;-79
2021/03/12 05:00:03;;;;;;;6.57;6.00;;;5.40;1.00;;;;;;4859222;28;20206;-88
2021/03/12 05:02:33;;;;;;;6.30;5.57;;;5.40;1.00;;;;;;4843837;28;20716;-85
2021/03/12 05:04:59;;;;;;;6.80;6.07;;;5.40;1.00;;;;;;4823625;28;20195;-86
2021/03/12 05:07:24;;;;;;;8.17;6.37;;;5.40;1.00;;;;;;4823237;28;20229;-83
2021/03/12 05:09:58;;;;;;;6.67;5.97;;;5.40;1.00;;;;;;4854803;28;20217;-84
2021/03/12 05:12:23;;;;;;;8.57;6.30;;;5.30;1.00;;;;;;4859016;28;20252;-80
2021/03/12 05:14:47;;;;;;;6.43;5.83;;;5.30;1.00;;;;;;4856151;28;20202;-85
2021/03/12 05:17:09;;;;;;;5.80;5.20;;;5.30;1.00;;;;;;4857817;28;20206;-82
2021/03/12 05:19:32;;;;;;;6.80;6.13;;;5.30;1.00;;;;;;4855346;28;20579;-83
2021/03/12 05:21:55;;;;;;;6.90;5.97;;;5.30;1.00;;;;;;4857979;28;20342;-86
2021/03/12 05:24:19;;;;;;;6.63;5.97;;;5.30;1.00;;;;;;4840273;28;20226;-81
2021/03/12 05:26:42;;;;;;;6.80;6.03;;;5.30;1.00;;;;;;4856731;28;20354;-84
2021/03/12 05:29:08;;;;;;;7.70;6.90;;;5.30;1.00;;;;;;4847722;28;20221;-84
2021/03/12 05:31:31;;;;;;;6.97;6.27;;;5.40;1.00;;;;;;4831914;28;20743;-89
2021/03/12 05:33:53;;;;;;;7.80;7.00;;;5.50;1.00;;;;;;4842568;28;20674;-84
2021/03/12 05:36:17;;;;;;;8.40;7.57;;;5.60;1.00;;;;;;4837362;28;20253;-85
2021/03/12 05:38:39;;;;;;;7.80;7.00;;;5.70;1.00;;;;;;4833997;28;20195;-83
2021/03/12 05:41:02;;;;;;;7.63;6.83;;;5.80;1.00;;;;;;4840014;28;20230;-83
2021/03/12 05:43:26;;;;;;;7.97;7.27;;;5.80;1.00;;;;;;4857231;28;20202;-83
2021/03/12 05:45:53;;;;;;;7.13;6.43;;;5.90;1.00;;;;;;4856441;28;20588;-81
2021/03/12 05:48:19;;;;;;;6.73;5.93;;;5.90;1.00;;;;;;4869689;28;20229;-87
2021/03/12 05:50:42;;;;;;;5.80;5.23;;;6.00;1.00;;;;;;4860457;28;20255;-87
2021/03/12 05:53:09;;;;;;;6.17;5.57;;;6.00;1.00;;;;;;4857041;28;20206;-82
2021/03/12 05:55:35;;;;;;;5.83;4.93;;;6.10;1.00;;;;;;4830553;28;20198;-87
2021/03/12 05:57:59;;;;;;;4.97;4.47;;;6.20;1.00;;;;;;4838595;28;20250;-88
2021/03/12 06:00:22;;;;;;;8.27;5.67;;;6.20;1.00;;;;;;4840104;28;20202;-87
2021/03/12 06:02:49;;;;;;;5.80;4.93;;;6.30;1.00;;;;;;4856868;28;20229;-80
2021/03/12 06:05:25;;;;;;;5.47;4.97;;;6.30;1.00;;;;;;4823518;28;20206;-79
2021/03/12 06:07:49;;;;;;;4.53;4.13;;;6.30;1.00;;;;;;4837143;28;20257;-79
2021/03/12 06:10:11;;;;;;;4.63;4.03;;;6.40;1.00;;;;;;4819554;28;20230;-82
2021/03/12 06:12:34;;;;;;;3.53;3.23;;;6.40;1.00;;;;;;4836036;28;20191;-86
2021/03/12 06:14:59;;;;;;;4.57;3.80;;;6.50;1.00;;;;;;4806596;28;20195;-82
2021/03/12 06:17:37;;;;;;;3.87;3.57;;;6.60;1.00;;;;;;4846658;28;20236;-87
2021/03/12 06:20:03;;;;;;;3.70;3.40;;;6.60;1.00;;;;;;4839159;28;20195;-82
2021/03/12 06:22:32;;;;;;;4.00;3.60;;;6.70;99.90;;;;;;4851885;28;20947;-80
2021/03/12 06:24:54;;;;;;;3.33;3.03;;;6.70;99.90;;;;;;4831114;28;20227;-87
2021/03/12 06:27:36;;;;;;;4.20;3.67;;;6.80;77.10;;;;;;4854555;28;20205;-85
2021/03/12 06:30:34;;;;;;;4.30;3.87;;;6.90;1.00;;;;;;4828022;28;20222;-80
2021/03/12 06:33:27;;;;;;;4.10;3.70;;;6.80;1.00;;;;;;4856818;28;20186;-82
2021/03/12 06:36:04;;;;;;;4.40;3.83;;;6.90;1.00;;;;;;4847313;28;20301;-82
2021/03/12 06:38:33;;;;;;;3.47;3.13;;;6.90;99.90;;;;;;4837740;28;20198;-82
2021/03/12 06:41:37;;;;;;;3.83;3.50;;;6.90;99.90;;;;;;4836109;28;20259;-83
2021/03/12 06:44:00;;;;;;;3.73;3.33;;;6.80;99.90;;;;;;4830288;28;20242;-88
2021/03/12 06:46:22;;;;;;;4.67;4.27;;;6.80;53.50;;;;;;4845992;28;20195;-81
2021/03/12 06:49:01;;;;;;;4.40;4.00;;;6.70;1.00;;;;;;4850871;28;20244;-84
2021/03/12 06:51:54;;;;;;;4.33;3.70;;;6.70;1.00;;;;;;4837219;28;20221;-76
2021/03/12 06:54:18;;;;;;;4.97;3.63;;;6.60;1.00;;;;;;4837938;28;20202;-89
2021/03/12 06:56:49;;;;;;;3.77;3.47;;;6.60;1.00;;;;;;4836122;28;20191;-82
2021/03/12 06:59:26;;;;;;;4.70;4.13;;;6.70;1.00;;;;;;4822194;28;20199;-81
2021/03/12 07:02:00;;;;;;;4.10;3.70;;;6.70;99.90;;;;;;4817910;28;20249;-83
2021/03/12 07:04:28;;;;;;;3.83;3.43;;;6.80;99.90;;;;;;4832412;28;20203;-82
2021/03/12 07:07:03;;;;;;;4.80;4.10;;;6.90;99.50;;;;;;4819644;28;20850;-78
2021/03/12 07:09:30;;;;;;;3.70;3.40;;;6.90;99.90;;;;;;4851067;28;20206;-84
2021/03/12 07:12:11;;;;;;;5.03;4.53;;;7.00;1.00;;;;;;4854493;28;20182;-88
2021/03/12 07:14:51;;;;;;;5.23;4.73;;;7.10;1.00;;;;;;4823795;28;20272;-84
2021/03/12 07:17:23;;;;;;;4.73;4.30;;;7.20;21.40;;;;;;4835424;28;20194;-84
2021/03/12 07:19:51;;;;;;;6.40;4.17;;;7.30;1.00;;;;;;4837703;28;20198;-87
2021/03/12 07:22:15;;;;;;;3.97;3.57;;;7.30;1.00;;;;;;4871864;28;20720;-83
2021/03/12 07:24:42;;;;;;;4.40;3.43;;;7.40;1.00;;;;;;4849411;28;20226;-87
2021/03/12 07:27:06;;;;;;;4.40;4.00;;;7.40;99.90;;;;;;4845330;28;20198;-87
2021/03/12 07:29:45;;;;;;;3.50;3.20;;;7.40;99.90;;;;;;4838514;28;20555;-82
2021/03/12 07:32:15;;;;;;;3.67;3.37;;;7.40;1.00;;;;;;4839785;28;20238;-89
2021/03/12 07:34:41;;;;;;;2.63;2.43;;;7.60;99.90;;;;;;4822239;28;20214;-82
2021/03/12 07:37:19;;;;;;;3.43;3.13;;;7.90;99.90;;;;;;4834445;28;20194;-79
2021/03/12 07:39:44;;;;;;;2.93;2.73;;;8.10;1.00;;;;;;4842551;28;20241;-83
2021/03/12 07:42:17;;;;;;;3.33;3.03;;;8.10;99.90;;;;;;4852761;28;20202;-81
2021/03/12 07:44:59;;;;;;;3.13;2.83;;;8.20;99.90;;;;;;4840513;28;20183;-85
2021/03/12 07:47:40;;;;;;;2.80;2.60;;;8.30;99.90;;;;;;4834344;28;20183;-83
2021/03/12 07:50:24;;;;;;;2.90;2.60;;;8.40;99.90;;;;;;4832270;28;20268;-81
2021/03/12 07:52:48;;;;;;;3.83;2.80;;;8.50;1.00;;;;;;4835807;28;20272;-86
2021/03/12 07:55:13;;;;;;;3.20;2.90;;;8.60;99.90;;;;;;4819778;28;20195;-85
2021/03/12 07:57:41;;;;;;;2.63;2.43;;;8.80;1.00;;;;;;4837844;28;20680;-85
2021/03/12 08:00:26;;;;;;;3.13;2.87;;;9.30;1.00;;;;;;4836985;28;20590;-81
2021/03/12 08:03:06;;;;;;;2.77;2.37;;;10.30;1.00;;;;;;4842029;28;20769;-87
2021/03/12 08:05:42;;;;;;;1.90;1.80;;;11.30;99.90;;;;;;4857332;28;20693;-83
2021/03/12 08:08:31;;;;;;;2.80;2.13;;;12.20;1.00;;;;;;4856547;28;20198;-86
2021/03/12 08:11:19;;;;;;;1.80;1.70;;;12.60;1.00;;;;;;4871919;28;20217;-84
2021/03/12 08:13:43;;;;;;;1.87;1.77;;;12.80;1.00;;;;;;4854078;28;20206;-79
2021/03/12 08:16:11;;;;;;;1.57;1.47;;;12.80;1.00;;;;;;4846626;28;20206;-83
2021/03/12 08:18:40;;;;;;;1.53;1.43;;;12.30;1.00;;;;;;4828249;28;20240;-84
2021/03/12 08:21:35;;;;;;;1.70;1.60;;;11.90;1.00;;;;;;4845319;28;20198;-85
2021/03/12 08:24:45;;;;;;;1.60;1.50;;;11.30;1.00;;;;;;4833245;28;20653;-78
2021/03/12 08:27:10;;;;;;;1.77;1.67;;;10.90;1.00;;;;;;4819432;28;20222;-82
2021/03/12 08:29:50;;;;;;;1.80;1.70;;;10.50;30.80;;;;;;4855167;28;20189;-85
2021/03/12 08:32:38;;;;;;;2.03;1.60;;;10.30;99.90;;;;;;4822595;28;20235;-78
2021/03/12 08:35:40;;;;;;;2.60;1.80;;;10.20;99.90;;;;;;4842349;28;20195;-84
2021/03/12 08:38:39;;;;;;;1.73;1.63;;;10.00;99.90;;;;;;4822295;28;20171;-84
2021/03/12 08:41:40;;;;;;;1.77;1.67;;;9.80;99.90;;;;;;4823231;28;20198;-81
2021/03/12 08:44:31;;;;;;;1.80;1.70;;;9.60;99.90;;;;;;4874398;28;20931;-78
2021/03/12 08:47:18;;;;;;;1.73;1.63;;;9.40;99.90;;;;;;4853117;28;20745;-79
2021/03/12 08:49:42;;;;;;;1.70;1.60;;;9.10;1.00;;;;;;4834471;28;20293;-81
2021/03/12 08:52:14;;;;;;;1.33;1.23;;;9.00;1.00;;;;;;4845432;28;20797;-87
2021/03/12 08:54:39;;;;;;;1.53;1.43;;;9.00;1.00;;;;;;4838550;28;20285;-83
2021/03/12 08:57:22;;;;;;;1.30;1.20;;;8.90;1.00;;;;;;4838215;28;20206;-82
2021/03/12 09:00:06;;;;;;;1.43;1.33;;;9.00;1.00;;;;;;4839693;28;20903;-83
2021/03/12 09:02:46;;;;;;;1.73;1.63;;;9.00;1.00;;;;;;4838753;28;20225;-79
2021/03/12 09:05:26;;;;;;;1.73;1.63;;;9.20;1.00;;;;;;4853692;28;20233;-80
2021/03/12 09:08:08;;;;;;;1.70;1.60;;;9.30;99.90;;;;;;4832967;28;20202;-86
2021/03/12 09:10:42;;;;;;;1.60;1.50;;;9.40;99.90;;;;;;4823385;28;20219;-85
2021/03/12 09:13:24;;;;;;;1.50;1.40;;;9.50;99.90;;;;;;4840482;28;20198;-85
2021/03/12 09:15:50;;;;;;;1.33;1.23;;;9.60;99.90;;;;;;4839213;28;20191;-80
2021/03/12 09:18:16;;;;;;;1.30;1.20;;;9.50;99.90;;;;;;4856447;28;20635;-90
2021/03/12 09:20:39;;;;;;;1.33;1.27;;;9.30;99.90;;;;;;4859737;28;20202;-84
2021/03/12 09:23:10;;;;;;;1.70;1.60;;;9.10;1.00;;;;;;4839111;28;20603;-87
2021/03/12 09:25:37;;;;;;;1.50;1.40;;;8.80;1.00;;;;;;4838583;28;20654;-81
2021/03/12 09:28:08;;;;;;;1.60;1.50;;;8.60;1.00;;;;;;4838282;28;20680;-81
2021/03/12 09:30:35;;;;;;;1.70;1.60;;;8.40;99.90;;;;;;4851539;28;20264;-85
2021/03/12 09:33:31;;;;;;;1.60;1.50;;;8.10;1.00;;;;;;4809905;28;20191;-79
2021/03/12 09:36:04;;;;;;;1.70;1.60;;;7.90;99.90;;;;;;4837700;28;20596;-81
2021/03/12 09:38:35;;;;;;;1.20;1.10;;;7.90;99.90;;;;;;4838075;28;20195;-85
2021/03/12 09:40:59;;;;;;;1.47;1.37;;;8.10;1.00;;;;;;4822175;28;20211;-87
2021/03/12 09:43:26;;;;;;;1.50;1.40;;;8.50;1.00;;;;;;4838452;28;20203;-74
2021/03/12 09:46:02;;;;;;;1.87;1.77;;;9.00;99.90;;;;;;4840282;28;20228;-80
2021/03/12 09:48:33;;;;;;;2.20;1.83;;;9.50;1.00;;;;;;4821041;28;20238;-82
2021/03/12 09:51:01;;;;;;;1.67;1.57;;;9.70;1.00;;;;;;4854268;28;20225;-85
2021/03/12 09:53:25;;;;;;;1.90;1.80;;;10.00;99.90;;;;;;4854450;28;20306;-80
2021/03/12 09:56:00;;;;;;;1.90;1.80;;;10.50;1.00;;;;;;4846621;28;20194;-80
2021/03/12 09:58:28;;;;;;;2.03;1.83;;;11.60;99.90;;;;;;4825880;28;20193;-87
2021/03/12 10:01:12;;;;;;;1.47;1.37;;;12.90;1.00;;;;;;4848606;28;20225;-74
2021/03/12 10:03:36;;;;;;;0.93;0.93;;;15.40;1.00;;;;;;4820640;28;20203;-80
2021/03/12 10:06:09;;;;;;;0.73;0.73;;;17.80;1.00;;;;;;4823060;28;20196;-86
2021/03/12 10:09:05;;;;;;;0.53;0.53;;;18.60;99.90;;;;;;4836529;28;20232;-81
2021/03/12 10:11:43;;;;;;;0.43;0.43;;;18.30;99.90;;;;;;4845678;28;20276;-81
2021/03/12 10:14:30;;;;;;;0.47;0.47;;;18.20;99.90;;;;;;4854296;28;20206;-80
2021/03/12 10:17:09;;;;;;;0.50;0.50;;;17.90;99.90;;;;;;4856200;28;20194;-84
2021/03/12 10:19:53;;;;;;;0.40;0.40;;;17.40;99.90;;;;;;4837896;28;20179;-80
2021/03/12 10:22:18;;;;;;;0.63;0.63;;;16.00;99.90;;;;;;4839445;28;20179;-82
2021/03/12 10:24:40;;;;;;;0.93;0.93;;;14.80;99.90;;;;;;4820775;28;20250;-81
2021/03/12 10:27:02;;;;;;;0.70;0.70;;;13.90;99.90;;;;;;4847914;28;20218;-78
2021/03/12 10:29:24;;;;;;;0.60;0.60;;;12.80;99.90;;;;;;4826717;28;20260;-79
2021/03/12 10:31:47;;;;;;;1.00;1.00;;;12.10;99.90;;;;;;4838462;28;20273;-83
2021/03/12 10:34:09;;;;;;;0.90;0.90;;;11.60;99.90;;;;;;4838986;28;20190;-82
2021/03/12 10:36:32;;;;;;;1.00;1.00;;;11.20;99.90;;;;;;4839921;28;20199;-80
2021/03/12 10:38:54;;;;;;;1.27;1.17;;;10.80;1.00;;;;;;4854646;28;20696;-81
2021/03/12 10:41:18;;;;;;;1.37;1.27;;;10.60;1.00;;;;;;4839824;28;20723;-81
2021/03/12 10:43:41;;;;;;;1.37;1.27;;;10.60;1.00;;;;;;4837836;28;20260;-80
2021/03/12 10:46:05;;;;;;;1.37;1.27;;;10.70;1.00;;;;;;4824883;28;20816;-84
2021/03/12 10:48:39;;;;;;;1.07;1.07;;;11.10;1.00;;;;;;4837889;28;20272;-84
2021/03/12 10:51:04;;;;;;;0.80;0.80;;;13.10;1.00;;;;;;4848971;28;20212;-82
2021/03/12 10:53:27;;;;;;;0.60;0.60;;;16.00;1.00;;;;;;4857512;28;20259;-88
2021/03/12 10:55:51;;;;;;;0.37;0.37;;;19.00;99.90;;;;;;4833140;28;20199;-83
2021/03/12 10:58:25;;;;;;;0.20;0.20;;;21.90;99.90;;;;;;4843610;28;20199;-87
2021/03/12 11:01:01;;;;;;;0.20;0.20;;;24.60;99.90;;;;;;4849639;28;20255;-84
2021/03/12 11:03:24;;;;;;;0.17;0.17;;;26.20;99.90;;;;;;4819166;28;20225;-82
2021/03/12 11:05:46;;;;;;;0.10;0.10;;;26.40;99.90;;;;;;4829468;28;20636;-79
2021/03/12 11:08:08;;;;;;;0.20;0.20;;;25.00;99.90;;;;;;4838203;28;20279;-82
2021/03/12 11:10:31;;;;;;;0.10;0.10;;;23.30;99.90;;;;;;4857835;28;20242;-88
2021/03/12 11:12:53;;;;;;;0.17;0.17;;;22.00;99.90;;;;;;4830867;28;20218;-86
2021/03/12 11:15:17;;;;;;;0.13;0.13;;;21.10;99.90;;;;;;4823180;28;20201;-79
2021/03/12 11:17:45;;;;;;;0.20;0.20;;;20.10;99.90;;;;;;4837555;28;20187;-84
2021/03/12 11:20:08;;;;;;;0.13;0.13;;;20.00;99.90;;;;;;4844498;28;20293;-82
2021/03/12 11:22:30;;;;;;;0.20;0.20;;;21.60;99.90;;;;;;4844406;28;20266;-86
2021/03/12 11:24:52;;;;;;;0.20;0.20;;;23.70;99.90;;;;;;4840618;28;20238;-80
2021/03/12 11:27:16;;;;;;;0.20;0.20;;;24.90;99.90;;;;;;4847848;28;20756;-77
2021/03/12 11:29:38;;;;;;;0.20;0.20;;;24.20;99.90;;;;;;4849935;28;20202;-84
2021/03/12 11:32:00;;;;;;;0.20;0.20;;;23.20;99.90;;;;;;4842197;28;20664;-88
2021/03/12 11:34:22;;;;;;;0.20;0.20;;;22.00;99.90;;;;;;4837069;28;20189;-83
2021/03/12 11:36:44;;;;;;;0.20;0.20;;;20.50;99.90;;;;;;4849224;28;20233;-74
2021/03/12 11:39:08;;;;;;;0.30;0.30;;;18.80;99.90;;;;;;4849597;28;20190;-86
2021/03/12 11:41:30;;;;;;;0.20;0.20;;;17.50;99.90;;;;;;4836275;28;20241;-85
2021/03/12 11:43:53;;;;;;;0.20;0.20;;;16.30;99.90;;;;;;4820653;28;20852;-84
2021/03/12 11:46:15;;;;;;;0.30;0.30;;;15.20;99.90;;;;;;4843628;28;20609;-81
2021/03/12 11:48:37;;;;;;;0.53;0.53;;;14.30;99.90;;;;;;4856846;28;20194;-79
2021/03/12 11:50:59;;;;;;;0.57;0.57;;;13.50;99.90;;;;;;4838723;28;20186;-80
2021/03/12 11:53:21;;;;;;;0.77;0.77;;;13.00;99.90;;;;;;4820170;28;20685;-83
2021/03/12 11:55:43;;;;;;;0.83;0.83;;;12.70;99.90;;;;;;4854933;28;20206;-81
2021/03/12 11:58:05;;;;;;;0.77;0.77;;;12.60;99.90;;;;;;4853870;28;20207;-78
2021/03/12 12:00:29;;;;;;;0.70;0.70;;;12.40;99.90;;;;;;4817348;28;20183;-78
2021/03/12 12:02:51;;;;;;;0.70;0.70;;;12.20;99.90;;;;;;4832022;28;20268;-84
2021/03/12 12:05:15;;;;;;;0.67;0.67;;;12.00;99.90;;;;;;4843751;28;20660;-83
2021/03/12 12:07:38;;;;;;;1.00;1.00;;;11.80;99.90;;;;;;4841607;28;20190;-86
2021/03/12 12:10:01;;;;;;;1.10;1.00;;;11.50;99.90;;;;;;4859816;28;20194;-85
2021/03/12 12:12:23;;;;;;;1.07;1.07;;;11.20;99.90;;;;;;4859647;28;20209;-84
2021/03/12 12:14:46;;;;;;;1.30;1.20;;;10.90;99.90;;;;;;4845040;28;20574;-80
2021/03/12 12:17:09;;;;;;;2.03;1.93;;;10.50;99.90;;;;;;4840954;28;20217;-87
2021/03/12 12:19:31;;;;;;;1.53;1.43;;;10.40;99.90;;;;;;4840665;28;20223;-84
2021/03/12 12:21:54;;;;;;;1.77;1.67;;;10.10;99.90;;;;;;4841563;28;20229;-76
2021/03/12 12:24:16;;;;;;;1.57;1.43;;;10.00;99.90;;;;;;4841385;28;20230;-78
2021/03/12 12:26:38;;;;;;;1.53;1.37;;;9.90;99.90;;;;;;4841085;28;20187;-83
2021/03/12 12:29:00;;;;;;;1.63;1.53;;;9.90;99.90;;;;;;4840526;28;20186;-84
2021/03/12 12:31:22;;;;;;;0.90;0.90;;;10.00;99.90;;;;;;4837782;28;20194;-79
2021/03/12 12:33:46;;;;;;;1.03;1.00;;;10.30;99.90;;;;;;4851610;28;20195;-80
2021/03/12 12:36:08;;;;;;;1.17;1.07;;;10.50;99.90;;;;;;4822449;28;20585;-82
2021/03/12 12:38:30;;;;;;;0.93;0.90;;;10.80;99.90;;;;;;4844016;28;20182;-81
2021/03/12 12:40:52;;;;;;;1.40;1.30;;;10.90;99.90;;;;;;4845628;28;20206;-85
2021/03/12 12:43:15;;;;;;;1.73;1.53;;;11.00;99.90;;;;;;4839999;28;20198;-82
2021/03/12 12:45:37;;;;;;;1.67;1.57;;;11.10;99.90;;;;;;4839878;28;20195;-84
2021/03/12 12:47:59;;;;;;;1.00;1.00;;;11.10;99.90;;;;;;4839575;28;20205;-80
2021/03/12 12:50:22;;;;;;;0.80;0.80;;;11.10;99.90;;;;;;4850655;28;20291;-87
2021/03/12 12:52:44;;;;;;;0.80;0.80;;;11.30;99.90;;;;;;4860278;28;20221;-75
2021/03/12 12:55:07;;;;;;;1.07;1.07;;;11.50;99.90;;;;;;4858873;28;20243;-82
2021/03/12 12:57:30;;;;;;;0.87;0.87;;;11.90;99.90;;;;;;4859009;28;20195;-86
2021/03/12 12:59:52;;;;;;;1.33;1.23;;;12.20;99.90;;;;;;4842054;28;20292;-84
2021/03/12 13:02:14;;;;;;;1.30;1.20;;;12.00;99.90;;;;;;4824543;28;20627;-87